Time;durP1;ratioP1;P1;durP2;ratioP2;P2;SDS_P1;SDS_P2;PMS_P1;PMS_P2;Temp;Humidity;BMP_temperature;BMP_pressure;BME280_temperature;BME280_humidity;BME280_pressure;Samples;Min_cycle;Max_cycle;Signal;HPM_P1;HPM_P2
2024/01/10 00:02:21;;;;;;;13.10;6.90;;;;;;;-5.39;67.90;100452.92;106823;1251;1003123;-39
2024/01/10 00:04:49;;;;;;;11.60;6.40;;;;;;;-5.41;68.00;100447.63;106970;1251;1003716;-39
2024/01/10 00:07:17;;;;;;;14.60;6.30;;;;;;;-5.42;68.12;100446.87;107756;1251;60421;-39
2024/01/10 00:09:45;;;;;;;11.60;6.60;;;;;;;-5.41;68.28;100439.21;107780;1251;60348;-39
2024/01/10 00:12:13;;;;;;;12.70;6.00;;;;;;;-5.40;68.43;100437.98;107720;1255;72642;-39
2024/01/10 00:14:40;;;;;;;11.40;6.20;;;;;;;-5.31;68.36;100438.24;107686;1251;66308;-39
2024/01/10 00:17:08;;;;;;;11.60;6.00;;;;;;;-5.23;68.35;100440.60;107696;1257;72683;-40
2024/01/10 00:19:35;;;;;;;9.30;6.20;;;;;;;-5.24;68.26;100435.23;107707;1251;60450;-40
2024/01/10 00:22:03;;;;;;;11.00;6.40;;;;;;;-5.28;68.65;100437.20;107699;1250;60344;-40
2024/01/10 00:24:31;;;;;;;11.10;6.00;;;;;;;-5.30;68.58;100421.80;107700;1251;73858;-40
2024/01/10 00:26:58;;;;;;;14.70;6.90;;;;;;;-5.35;68.74;100417.28;107764;1251;66601;-40
2024/01/10 00:29:26;;;;;;;14.00;6.70;;;;;;;-5.41;69.08;100416.17;107751;1251;71352;-40
2024/01/10 00:31:54;;;;;;;10.00;5.90;;;;;;;-5.43;68.98;100412.43;107752;1251;60727;-39
2024/01/10 00:34:21;;;;;;;9.70;5.90;;;;;;;-5.37;69.26;100408.55;107705;1251;60538;-40
2024/01/10 00:36:49;;;;;;;12.80;6.90;;;;;;;-5.34;69.41;100406.31;107761;1250;74211;-39
2024/01/10 00:39:16;;;;;;;11.60;6.10;;;;;;;-5.37;69.36;100410.78;107798;1251;66282;-40
2024/01/10 00:41:43;;;;;;;9.70;5.40;;;;;;;-5.42;69.76;100405.91;107750;1255;71362;-39
2024/01/10 00:44:11;;;;;;;11.30;6.30;;;;;;;-5.47;69.86;100408.92;107760;1253;60414;-39
2024/01/10 00:46:39;;;;;;;11.70;6.30;;;;;;;-5.50;69.92;100401.97;107028;1250;1002720;-39
2024/01/10 00:49:06;;;;;;;10.00;5.60;;;;;;;-5.52;70.22;100391.98;106962;1251;1015509;-40
2024/01/10 00:51:34;;;;;;;8.20;5.30;;;;;;;-5.47;70.28;100391.48;107795;1250;67559;-40
2024/01/10 00:54:02;;;;;;;9.50;5.60;;;;;;;-5.38;70.36;100391.94;106989;1253;1003757;-39
2024/01/10 00:56:29;;;;;;;11.10;5.80;;;;;;;-5.36;70.47;100388.27;107718;1250;60450;-39
2024/01/10 00:58:57;;;;;;;10.60;5.50;;;;;;;-5.38;70.32;100386.41;107742;1251;60438;-39
2024/01/10 01:01:25;;;;;;;11.80;6.30;;;;;;;-5.40;70.53;100379.69;107775;1250;72584;-39
2024/01/10 01:03:53;;;;;;;10.10;5.70;;;;;;;-5.44;70.68;100382.93;107766;1250;67610;-38
2024/01/10 01:06:20;;;;;;;12.00;6.10;;;;;;;-5.45;70.83;100377.66;107768;1251;73125;-39
2024/01/10 01:08:48;;;;;;;9.50;5.40;;;;;;;-5.46;70.91;100376.11;107761;1251;61689;-39
2024/01/10 01:11:16;;;;;;;12.20;6.20;;;;;;;-5.39;70.79;100375.00;107767;1252;61789;-38
2024/01/10 01:13:43;;;;;;;10.30;6.00;;;;;;;-5.34;70.81;100368.00;107774;1251;72562;-39
2024/01/10 01:16:11;;;;;;;10.40;5.20;;;;;;;-5.35;71.07;100365.37;107758;1253;67519;-39
2024/01/10 01:18:39;;;;;;;9.10;5.60;;;;;;;-5.37;71.11;100371.66;107778;1253;72990;-38
2024/01/10 01:21:06;;;;;;;9.70;5.60;;;;;;;-5.38;71.09;100367.48;107741;1253;60427;-39
2024/01/10 01:23:34;;;;;;;10.00;5.50;;;;;;;-5.41;71.25;100359.42;107047;1256;1003336;-40
2024/01/10 01:26:08;;;;;;;13.10;6.10;;;;;;;-5.45;71.12;100353.63;107013;1251;1003058;-40
2024/01/10 01:28:36;;;;;;;11.40;5.90;;;;;;;-5.42;71.21;100352.05;107750;1251;67569;-40
2024/01/10 01:31:04;;;;;;;10.70;6.20;;;;;;;-5.36;71.24;100358.71;107752;1256;72060;-40
2024/01/10 01:33:32;;;;;;;12.80;5.70;;;;;;;-5.39;71.48;100360.44;107017;1251;1003047;-40
2024/01/10 01:36:00;;;;;;;9.70;5.70;;;;;;;-5.40;71.49;100356.92;106996;1251;1003058;-40
2024/01/10 01:38:27;;;;;;;9.70;5.70;;;;;;;-5.41;71.52;100357.62;107798;1251;73883;-40
2024/01/10 01:40:55;;;;;;;10.00;6.10;;;;;;;-5.43;71.69;100349.72;107594;1251;68064;-40
2024/01/10 01:43:26;;;;;;;11.90;6.00;;;;;;;-5.44;71.99;100345.41;107768;1253;72437;-38
2024/01/10 01:45:54;;;;;;;11.30;5.50;;;;;;;-5.37;71.56;100344.51;107709;1250;60374;-39
2024/01/10 01:48:23;;;;;;;11.40;5.80;;;;;;;-5.31;71.71;100337.65;107781;1251;60325;-38
2024/01/10 01:50:53;;;;;;;8.10;5.40;;;;;;;-5.32;71.77;100329.70;107795;1250;72050;-38
2024/01/10 01:53:20;;;;;;;11.20;6.80;;;;;;;-5.36;71.94;100320.59;107766;1250;66296;-38
2024/01/10 01:55:48;;;;;;;9.40;5.60;;;;;;;-5.41;72.09;100318.25;107760;1251;71322;-39
2024/01/10 01:58:16;;;;;;;9.70;6.10;;;;;;;-5.46;72.32;100326.13;107735;1252;61125;-38
2024/01/10 02:00:43;;;;;;;9.50;5.10;;;;;;;-5.47;72.46;100327.79;107022;1251;1003375;-38
2024/01/10 02:03:11;;;;;;;10.10;5.90;;;;;;;-5.40;72.59;100323.88;107576;1251;73806;-38
2024/01/10 02:05:39;;;;;;;10.30;6.10;;;;;;;-5.34;72.54;100314.45;107752;1250;67498;-38
2024/01/10 02:08:06;;;;;;;10.40;6.00;;;;;;;-5.33;72.75;100312.31;107714;1253;71407;-39
2024/01/10 02:10:34;;;;;;;10.40;5.80;;;;;;;-5.33;72.79;100310.30;106979;1250;1003149;-38
2024/01/10 02:13:02;;;;;;;9.00;5.60;;;;;;;-5.35;72.84;100308.50;107779;1250;60467;-38
2024/01/10 02:15:29;;;;;;;10.80;5.70;;;;;;;-5.40;73.07;100298.79;107001;1251;1002982;-39
2024/01/10 02:17:57;;;;;;;11.50;5.50;;;;;;;-5.36;73.17;100299.50;107596;1250;67505;-39
2024/01/10 02:20:24;;;;;;;9.80;6.10;;;;;;;-5.30;73.13;100294.13;107001;1251;1003037;-39
2024/01/10 02:22:52;;;;;;;9.10;5.70;;;;;;;-5.31;73.44;100284.80;107020;1250;1003007;-39
2024/01/10 02:25:21;;;;;;;8.70;5.40;;;;;;;-5.36;73.71;100283.43;106989;1250;1003640;-39
2024/01/10 02:27:48;;;;;;;10.20;5.70;;;;;;;-5.39;74.03;100285.37;107071;1255;1002998;-39
2024/01/10 02:30:16;;;;;;;9.80;5.30;;;;;;;-5.42;74.19;100279.55;107735;1250;67529;-39
2024/01/10 02:32:44;;;;;;;9.40;5.20;;;;;;;-5.37;74.29;100280.52;107748;1253;71438;-39
2024/01/10 02:35:11;;;;;;;9.50;5.50;;;;;;;-5.30;74.22;100278.91;107752;1254;60571;-38
2024/01/10 02:37:39;;;;;;;8.40;5.00;;;;;;;-5.30;74.44;100277.05;106984;1254;1003058;-38
2024/01/10 02:40:09;;;;;;;9.90;5.80;;;;;;;-5.33;74.68;100272.98;107746;1255;73874;-39
2024/01/10 02:42:36;;;;;;;8.20;5.30;;;;;;;-5.36;74.93;100272.97;107814;1256;67596;-39
2024/01/10 02:45:05;;;;;;;13.00;6.40;;;;;;;-5.37;75.13;100267.34;107763;1251;72437;-39
2024/01/10 02:47:32;;;;;;;11.20;5.50;;;;;;;-5.32;75.08;100260.70;107746;1251;60711;-39
2024/01/10 02:50:00;;;;;;;9.80;5.40;;;;;;;-5.24;75.14;100260.48;107723;1255;59661;-39
2024/01/10 02:52:27;;;;;;;8.80;5.50;;;;;;;-5.24;75.31;100261.65;107761;1249;73965;-39
2024/01/10 02:54:55;;;;;;;8.80;5.50;;;;;;;-5.25;75.37;100263.46;107012;1251;1002495;-39
2024/01/10 02:57:22;;;;;;;10.30;5.30;;;;;;;-5.28;75.59;100260.55;107736;1250;73507;-39
2024/01/10 02:59:50;;;;;;;13.70;5.70;;;;;;;-5.29;75.78;100255.56;107730;1256;61651;-39
2024/01/10 03:02:17;;;;;;;9.60;5.20;;;;;;;-5.23;75.52;100248.45;107714;1250;60345;-39
2024/01/10 03:04:45;;;;;;;10.90;6.40;;;;;;;-5.19;75.68;100245.73;107729;1256;73868;-39
2024/01/10 03:07:13;;;;;;;9.50;5.40;;;;;;;-5.21;75.78;100240.60;107699;1250;67548;-38
2024/01/10 03:09:40;;;;;;;8.70;5.60;;;;;;;-5.23;75.88;100240.63;107722;1250;72666;-39
2024/01/10 03:12:08;;;;;;;9.00;5.20;;;;;;;-5.26;76.16;100240.83;107744;1250;60296;-39
2024/01/10 03:14:35;;;;;;;10.10;4.80;;;;;;;-5.24;76.12;100234.00;107754;1250;60056;-39
2024/01/10 03:17:03;;;;;;;8.50;5.30;;;;;;;-5.17;75.98;100231.65;107697;1250;73984;-39
2024/01/10 03:19:31;;;;;;;9.80;5.70;;;;;;;-5.17;76.11;100232.42;107701;1250;67506;-39
2024/01/10 03:21:58;;;;;;;9.60;5.70;;;;;;;-5.21;76.34;100233.73;107735;1253;72485;-39
2024/01/10 03:24:27;;;;;;;10.30;5.70;;;;;;;-5.23;76.47;100229.36;107746;1251;60500;-38
2024/01/10 03:26:54;;;;;;;9.40;5.80;;;;;;;-5.24;76.45;100227.59;107809;1250;60438;-39
2024/01/10 03:29:22;;;;;;;9.20;5.10;;;;;;;-5.19;76.45;100228.98;107712;1255;74677;-39
2024/01/10 03:31:49;;;;;;;9.40;5.40;;;;;;;-5.13;76.26;100224.48;107006;1250;1003337;-40
2024/01/10 03:34:17;;;;;;;10.80;5.10;;;;;;;-5.17;76.42;100223.45;106972;1250;1003025;-40
2024/01/10 03:36:45;;;;;;;11.10;5.80;;;;;;;-5.19;76.64;100222.48;107738;1250;60355;-40
2024/01/10 03:39:13;;;;;;;9.00;5.20;;;;;;;-5.20;76.74;100222.70;107672;1255;59594;-41
2024/01/10 03:41:40;;;;;;;9.10;5.00;;;;;;;-5.20;76.68;100213.62;106945;1250;1003471;-39
2024/01/10 03:44:08;;;;;;;9.50;5.50;;;;;;;-5.12;76.68;100211.30;107684;1250;67883;-39
2024/01/10 03:46:36;;;;;;;10.60;5.40;;;;;;;-5.08;76.63;100212.57;107695;1253;72289;-39
2024/01/10 03:49:03;;;;;;;9.00;5.40;;;;;;;-5.08;76.60;100209.70;107705;1253;60755;-39
2024/01/10 03:51:31;;;;;;;8.80;5.60;;;;;;;-5.10;76.59;100203.82;107736;1250;60529;-40
2024/01/10 03:53:59;;;;;;;9.50;5.10;;;;;;;-5.12;76.64;100205.89;107731;1250;72630;-39
2024/01/10 03:56:26;;;;;;;9.10;5.40;;;;;;;-5.10;76.52;100201.81;107698;1251;68076;-40
2024/01/10 03:58:54;;;;;;;9.00;5.60;;;;;;;-5.01;76.57;100200.70;107709;1253;72661;-39
2024/01/10 04:01:22;;;;;;;9.00;5.50;;;;;;;-4.99;76.60;100198.09;107631;1253;60229;-39
2024/01/10 04:03:50;;;;;;;9.00;5.40;;;;;;;-4.99;76.79;100204.88;107740;1251;60314;-39
2024/01/10 04:06:18;;;;;;;11.40;5.70;;;;;;;-4.98;76.84;100204.08;107698;1251;73778;-39
2024/01/10 04:08:46;;;;;;;9.90;5.50;;;;;;;-5.00;76.66;100206.54;107681;1251;67562;-39
2024/01/10 04:11:13;;;;;;;9.50;5.20;;;;;;;-4.96;76.68;100202.48;107644;1253;71162;-39
2024/01/10 04:13:41;;;;;;;8.90;5.00;;;;;;;-4.90;76.58;100200.70;107706;1252;60446;-39
2024/01/10 04:16:08;;;;;;;9.00;5.10;;;;;;;-4.92;76.78;100198.64;106881;1256;1003778;-39
2024/01/10 04:18:36;;;;;;;9.00;5.50;;;;;;;-4.97;77.10;100195.34;107662;1257;73833;-39
2024/01/10 04:21:04;;;;;;;9.70;5.30;;;;;;;-5.01;77.24;100196.99;106876;1253;1003194;-39
2024/01/10 04:23:33;;;;;;;11.00;5.80;;;;;;;-5.04;77.42;100199.38;106895;1253;1003635;-39
2024/01/10 04:26:03;;;;;;;8.40;5.00;;;;;;;-4.97;77.33;100193.27;107698;1251;61653;-39
2024/01/10 04:28:30;;;;;;;11.50;6.00;;;;;;;-4.92;77.52;100188.39;107615;1252;60959;-39
2024/01/10 04:30:58;;;;;;;12.90;5.70;;;;;;;-4.92;77.58;100190.19;107681;1251;73835;-39
2024/01/10 04:33:26;;;;;;;10.80;5.90;;;;;;;-4.92;77.86;100192.92;106759;1253;1002936;-39
2024/01/10 04:35:53;;;;;;;11.80;6.20;;;;;;;-4.93;77.89;100192.12;107637;1253;71485;-39
2024/01/10 04:38:21;;;;;;;9.10;5.50;;;;;;;-4.93;78.03;100194.48;107628;1253;60466;-39
2024/01/10 04:40:49;;;;;;;9.30;5.60;;;;;;;-4.87;78.13;100187.68;107635;1253;60393;-39
2024/01/10 04:43:16;;;;;;;9.80;5.80;;;;;;;-4.84;78.05;100185.81;107700;1255;73810;-39
2024/01/10 04:45:44;;;;;;;10.20;6.00;;;;;;;-4.88;78.26;100186.44;107661;1252;66296;-39
2024/01/10 04:48:12;;;;;;;11.30;6.00;;;;;;;-4.94;78.49;100184.13;107635;1253;72721;-39
2024/01/10 04:50:39;;;;;;;9.40;5.60;;;;;;;-4.97;78.71;100183.23;106982;1253;1003514;-39
2024/01/10 04:53:07;;;;;;;11.70;5.90;;;;;;;-4.91;78.90;100182.80;106906;1252;1003325;-39
2024/01/10 04:55:35;;;;;;;9.70;5.80;;;;;;;-4.85;78.91;100179.26;107616;1252;72877;-39
2024/01/10 04:58:03;;;;;;;11.60;5.80;;;;;;;-4.86;79.08;100171.47;107689;1251;67681;-39
2024/01/10 05:00:30;;;;;;;11.30;6.50;;;;;;;-4.88;79.24;100171.95;107666;1255;71426;-39
2024/01/10 05:02:58;;;;;;;9.70;6.10;;;;;;;-4.87;79.37;100167.58;107674;1253;60170;-39
2024/01/10 05:05:25;;;;;;;11.60;5.50;;;;;;;-4.85;79.40;100172.06;107646;1252;60310;-39
2024/01/10 05:07:53;;;;;;;12.20;6.50;;;;;;;-4.78;79.23;100171.44;107629;1252;73825;-38
2024/01/10 05:10:21;;;;;;;13.10;6.90;;;;;;;-4.73;79.17;100161.61;107714;1253;67681;-39
2024/01/10 05:12:48;;;;;;;12.50;6.90;;;;;;;-4.74;79.23;100165.79;107699;1252;72732;-39
2024/01/10 05:15:16;;;;;;;13.00;7.20;;;;;;;-4.78;79.34;100169.00;107710;1251;60174;-38
2024/01/10 05:17:43;;;;;;;10.40;6.40;;;;;;;-4.81;79.52;100172.70;107694;1253;59408;-38
2024/01/10 05:20:11;;;;;;;12.30;6.90;;;;;;;-4.77;79.62;100169.44;107640;1256;73877;-39
2024/01/10 05:22:39;;;;;;;11.80;6.40;;;;;;;-4.68;79.44;100175.09;107643;1253;67535;-38
2024/01/10 05:25:08;;;;;;;13.60;7.00;;;;;;;-4.66;79.43;100174.71;107540;1253;72457;-39
2024/01/10 05:27:35;;;;;;;10.00;6.20;;;;;;;-4.65;79.36;100182.91;107709;1253;60418;-39
2024/01/10 05:30:03;;;;;;;12.70;7.20;;;;;;;-4.66;79.50;100186.71;107695;1251;60513;-39
2024/01/10 05:32:31;;;;;;;11.10;6.80;;;;;;;-4.62;79.30;100195.56;107685;1251;72973;-39
2024/01/10 05:34:59;;;;;;;11.40;6.40;;;;;;;-4.53;79.19;100197.67;106876;1256;1002895;-39
2024/01/10 05:37:26;;;;;;;12.70;6.30;;;;;;;-4.51;79.15;100194.64;107628;1253;71236;-38
2024/01/10 05:39:54;;;;;;;12.00;7.10;;;;;;;-4.52;79.25;100192.33;107683;1253;59378;-38
2024/01/10 05:42:21;;;;;;;12.40;7.40;;;;;;;-4.54;79.27;100197.27;107705;1251;60438;-39
2024/01/10 05:44:49;;;;;;;11.70;6.60;;;;;;;-4.53;79.28;100199.94;107641;1252;73936;-38
2024/01/10 05:47:16;;;;;;;14.10;6.80;;;;;;;-4.44;79.03;100207.39;107627;1251;67531;-39
2024/01/10 05:49:44;;;;;;;10.90;6.20;;;;;;;-4.40;78.99;100216.40;107703;1252;72488;-38
2024/01/10 05:52:11;;;;;;;12.40;6.80;;;;;;;-4.40;79.15;100220.67;107684;1251;61172;-38
2024/01/10 05:54:39;;;;;;;13.80;6.70;;;;;;;-4.40;79.12;100223.45;107532;1253;60460;-38
2024/01/10 05:57:06;;;;;;;12.50;6.80;;;;;;;-4.37;79.10;100223.71;107689;1253;73844;-38
2024/01/10 05:59:35;;;;;;;12.80;7.40;;;;;;;-4.32;78.77;100228.44;107662;1257;66418;-39
2024/01/10 06:02:03;;;;;;;14.70;7.70;;;;;;;-4.21;78.57;100230.58;107645;1251;72702;-39
2024/01/10 06:04:31;;;;;;;12.50;7.80;;;;;;;-4.21;78.13;100225.08;107735;1253;60435;-39
2024/01/10 06:06:59;;;;;;;15.00;8.30;;;;;;;-4.26;78.19;100230.23;106895;1252;1003570;-40
2024/01/10 06:09:26;;;;;;;14.00;7.50;;;;;;;-4.28;78.37;100227.08;107652;1253;73789;-39
2024/01/10 06:11:54;;;;;;;14.10;7.60;;;;;;;-4.30;78.31;100221.64;107660;1252;67937;-40
2024/01/10 06:14:21;;;;;;;14.90;7.60;;;;;;;-4.25;78.29;100223.20;107628;1256;71689;-39
2024/01/10 06:16:49;;;;;;;13.90;7.40;;;;;;;-4.16;78.01;100221.70;107625;1253;60431;-39
2024/01/10 06:19:18;;;;;;;14.50;8.50;;;;;;;-4.09;78.12;100220.38;107700;1251;60286;-40
2024/01/10 06:21:46;;;;;;;16.10;8.80;;;;;;;-4.06;78.00;100220.20;107716;1251;72565;-40
2024/01/10 06:24:13;;;;;;;14.30;8.10;;;;;;;-4.06;77.85;100220.05;107589;1257;66446;-40
2024/01/10 06:26:41;;;;;;;13.60;8.60;;;;;;;-4.10;77.57;100225.56;106893;1252;1002904;-39
2024/01/10 06:29:08;;;;;;;14.90;8.10;;;;;;;-4.12;77.54;100224.79;107644;1251;61677;-39
2024/01/10 06:31:36;;;;;;;13.50;7.70;;;;;;;-4.09;77.38;100222.45;107631;1251;60559;-39
2024/01/10 06:34:03;;;;;;;14.50;7.90;;;;;;;-4.09;77.44;100225.63;107695;1251;73793;-39
2024/01/10 06:36:31;;;;;;;17.10;9.00;;;;;;;-4.14;77.82;100230.11;107691;1253;67589;-39
2024/01/10 06:38:59;;;;;;;15.00;8.60;;;;;;;-4.19;77.86;100232.52;107631;1253;72594;-39
2024/01/10 06:41:27;;;;;;;17.30;9.20;;;;;;;-4.23;77.97;100238.28;106013;1258;1003056;-39
2024/01/10 06:43:54;;;;;;;17.30;8.90;;;;;;;-4.20;78.01;100239.16;107685;1251;60447;-39
2024/01/10 06:46:22;;;;;;;17.20;9.30;;;;;;;-4.10;77.92;100243.66;107702;1254;73395;-39
2024/01/10 06:48:50;;;;;;;16.30;9.30;;;;;;;-4.08;77.97;100243.77;107695;1253;66426;-39
2024/01/10 06:51:17;;;;;;;17.10;9.20;;;;;;;-4.08;78.11;100248.90;107705;1253;72385;-39
2024/01/10 06:53:45;;;;;;;17.50;9.50;;;;;;;-4.07;78.19;100250.55;107654;1253;60584;-39
2024/01/10 06:56:12;;;;;;;16.70;9.70;;;;;;;-4.06;78.26;100254.96;107678;1252;60375;-40
2024/01/10 06:58:40;;;;;;;17.50;10.10;;;;;;;-4.05;78.03;100251.27;107653;1250;72582;-39
2024/01/10 07:01:13;;;;;;;17.10;9.30;;;;;;;-3.99;77.68;100255.64;107643;1250;67603;-39
2024/01/10 07:03:41;;;;;;;16.00;9.20;;;;;;;-3.95;77.58;100252.67;107695;1250;72701;-39
2024/01/10 07:06:09;;;;;;;16.10;9.20;;;;;;;-3.96;77.66;100253.89;107689;1250;60415;-39
2024/01/10 07:08:36;;;;;;;21.30;11.50;;;;;;;-4.00;77.72;100253.63;107541;1250;173353;-40
2024/01/10 07:11:05;;;;;;;17.80;10.00;;;;;;;-4.01;77.80;100254.70;107742;1250;72544;-40
2024/01/10 07:14:09;;;;;;;18.60;10.80;;;;;;;-4.01;77.83;100264.30;104345;1292;601102;-41
2024/01/10 07:16:38;;;;;;;19.80;10.70;;;;;;;-3.97;77.66;100262.55;105940;1267;1002945;-40
2024/01/10 07:19:05;;;;;;;14.20;8.80;;;;;;;-3.86;77.54;100267.74;106673;1264;60065;-41
2024/01/10 07:21:33;;;;;;;17.80;9.70;;;;;;;-3.83;77.51;100263.52;106696;1263;71191;-41
2024/01/10 07:24:00;;;;;;;17.60;10.20;;;;;;;-3.83;77.64;100262.23;106658;1264;66438;-40
2024/01/10 07:26:28;;;;;;;17.90;10.20;;;;;;;-3.84;77.62;100259.10;106632;1263;71465;-40
2024/01/10 07:28:56;;;;;;;17.60;9.90;;;;;;;-3.86;77.57;100263.52;106478;1263;339450;-41
2024/01/10 07:31:24;;;;;;;18.40;9.80;;;;;;;-3.91;77.66;100264.29;106788;1263;59285;-41
2024/01/10 07:33:51;;;;;;;17.30;9.70;;;;;;;-3.87;77.45;100263.61;106837;1266;70987;-40
2024/01/10 07:36:19;;;;;;;16.90;10.20;;;;;;;-3.82;77.41;100258.05;106740;1264;66601;-38
2024/01/10 07:38:47;;;;;;;16.70;10.10;;;;;;;-3.82;77.61;100259.21;106717;1264;72683;-39
2024/01/10 07:41:14;;;;;;;19.20;11.00;;;;;;;-3.82;77.95;100259.13;106741;1267;59658;-39
2024/01/10 07:43:42;;;;;;;17.80;10.30;;;;;;;-3.79;78.01;100260.88;106795;1263;60210;-39
2024/01/10 07:46:09;;;;;;;20.60;10.50;;;;;;;-3.78;77.97;100257.39;106845;1267;73010;-39
2024/01/10 07:48:37;;;;;;;20.10;11.20;;;;;;;-3.79;77.97;100258.96;106084;1264;1003203;-40
2024/01/10 07:51:05;;;;;;;17.20;10.00;;;;;;;-3.72;77.82;100255.98;106692;1264;72664;-39
2024/01/10 07:53:33;;;;;;;20.50;10.50;;;;;;;-3.65;77.58;100256.23;106787;1264;59722;-39
2024/01/10 07:56:01;;;;;;;18.80;11.10;;;;;;;-3.67;77.60;100254.63;106843;1267;59571;-39
2024/01/10 07:58:29;;;;;;;18.50;10.70;;;;;;;-3.71;77.66;100255.41;106807;1264;73095;-39
2024/01/10 08:00:57;;;;;;;21.20;11.80;;;;;;;-3.75;77.73;100255.26;106859;1267;68236;-38
2024/01/10 08:03:24;;;;;;;18.20;10.90;;;;;;;-3.82;77.87;100263.45;106850;1264;72819;-39
2024/01/10 08:05:52;;;;;;;18.20;10.70;;;;;;;-3.82;77.83;100263.63;106805;1264;59659;-39
2024/01/10 08:08:19;;;;;;;19.30;10.10;;;;;;;-3.77;77.84;100267.88;106854;1264;60125;-39
2024/01/10 08:10:47;;;;;;;18.30;10.30;;;;;;;-3.77;78.00;100263.16;106789;1267;73078;-39
2024/01/10 08:13:15;;;;;;;20.60;11.30;;;;;;;-3.80;78.27;100262.75;106858;1267;67842;-39
2024/01/10 08:15:42;;;;;;;19.00;10.70;;;;;;;-3.84;78.33;100261.80;106845;1267;72882;-39
2024/01/10 08:18:10;;;;;;;19.60;10.70;;;;;;;-3.86;78.43;100260.02;106834;1267;59601;-39
2024/01/10 08:20:38;;;;;;;17.80;10.60;;;;;;;-3.80;78.34;100264.82;106864;1263;60199;-39
2024/01/10 08:23:06;;;;;;;18.10;10.40;;;;;;;-3.74;78.06;100271.28;106839;1267;71565;-39
2024/01/10 08:25:33;;;;;;;18.30;10.20;;;;;;;-3.77;78.14;100266.45;106855;1264;67675;-39
2024/01/10 08:28:01;;;;;;;19.70;11.20;;;;;;;-3.78;78.53;100266.61;106842;1267;72625;-39
2024/01/10 08:30:28;;;;;;;19.70;11.20;;;;;;;-3.77;78.64;100262.05;106862;1264;59540;-39
2024/01/10 08:32:56;;;;;;;19.50;10.80;;;;;;;-3.75;78.61;100260.70;106856;1264;59269;-39
2024/01/10 08:35:23;;;;;;;19.30;11.00;;;;;;;-3.67;78.35;100253.56;106828;1264;73055;-39
2024/01/10 08:37:55;;;;;;;21.40;11.50;;;;;;;-3.56;78.10;100242.64;106855;1264;68355;-39
2024/01/10 08:40:25;;;;;;;18.60;11.00;;;;;;;-3.55;78.05;100239.84;106869;1264;72678;-39
2024/01/10 08:42:53;;;;;;;19.80;11.40;;;;;;;-3.57;77.98;100235.73;106098;1267;1003201;-39
2024/01/10 08:45:20;;;;;;;18.80;11.10;;;;;;;-3.59;77.89;100246.77;106885;1264;59727;-39
2024/01/10 08:47:48;;;;;;;23.90;12.10;;;;;;;-3.61;77.79;100255.08;106889;1267;73161;-39
2024/01/10 08:50:15;;;;;;;21.00;11.00;;;;;;;-3.54;77.82;100263.81;106885;1264;67612;-39
2024/01/10 08:52:43;;;;;;;20.70;11.10;;;;;;;-3.46;77.55;100264.02;107280;1257;72438;-39
2024/01/10 08:55:11;;;;;;;19.80;11.20;;;;;;;-3.47;77.41;100270.46;106495;1257;1002961;-39
2024/01/10 08:57:40;;;;;;;;;;;;;;;-3.51;77.64;100269.64;107342;1258;59497;-39
2024/01/10 09:00:11;;;;;;;20.20;11.40;;;;;;;-3.52;77.67;100274.32;107232;1257;73066;-39
2024/01/10 09:02:40;;;;;;;22.00;11.20;;;;;;;-3.57;77.80;100269.55;106548;1257;1002946;-39
2024/01/10 09:05:10;;;;;;;18.90;10.50;;;;;;;-3.55;77.83;100266.86;107228;1258;72436;-39
2024/01/10 09:07:39;;;;;;;19.00;11.10;;;;;;;-3.46;77.59;100265.83;107316;1260;59673;-39
2024/01/10 09:10:07;;;;;;;20.90;12.00;;;;;;;-3.45;77.49;100261.30;107259;1258;60034;-39
2024/01/10 09:12:35;;;;;;;22.90;13.00;;;;;;;-3.44;77.65;100264.42;107334;1257;73260;-39
2024/01/10 09:15:03;;;;;;;20.90;12.20;;;;;;;-3.43;77.74;100264.17;107338;1260;67561;-39
2024/01/10 09:17:31;;;;;;;21.00;11.80;;;;;;;-3.42;77.70;100261.52;106532;1256;1018700;-39
2024/01/10 09:20:01;;;;;;;22.30;12.20;;;;;;;-3.41;77.25;100260.33;107289;1256;60857;-39
2024/01/10 09:22:29;;;;;;;20.10;11.40;;;;;;;-3.33;77.15;100260.42;107304;1257;59634;-39
2024/01/10 09:25:03;;;;;;;24.10;12.00;;;;;;;-3.29;77.27;100253.85;107264;1257;73091;-39
2024/01/10 09:27:33;;;;;;;24.10;12.70;;;;;;;-3.30;77.18;100251.58;107333;1256;67892;-39
2024/01/10 09:30:08;;;;;;;20.80;12.40;;;;;;;-3.30;77.17;100248.92;107223;1258;71801;-39
2024/01/10 09:32:37;;;;;;;21.00;12.30;;;;;;;-3.27;77.32;100247.56;107274;1257;59516;-39
2024/01/10 09:35:05;;;;;;;21.90;12.40;;;;;;;-3.25;77.26;100243.14;107281;1256;62469;-39
2024/01/10 09:37:33;;;;;;;20.30;11.90;;;;;;;-3.15;77.28;100241.34;107299;1257;71647;-39
2024/01/10 09:40:01;;;;;;;19.60;11.50;;;;;;;-3.01;76.77;100241.28;107315;1257;67519;-39
2024/01/10 09:42:31;;;;;;;20.60;11.60;;;;;;;-2.96;76.74;100236.41;107327;1257;72445;-39
2024/01/10 09:45:03;;;;;;;19.40;11.30;;;;;;;-2.97;76.33;100237.14;107209;1258;59442;-39
2024/01/10 09:47:31;;;;;;;;;;;;;;;-3.01;76.16;100231.63;106556;1257;1003439;-39
2024/01/10 09:50:02;;;;;;;21.30;10.80;;;;;;;-3.07;76.27;100228.33;107207;1260;72879;-39
2024/01/10 09:52:29;;;;;;;20.70;11.70;;;;;;;-3.12;76.21;100228.65;107264;1256;66764;-39
2024/01/10 09:54:57;;;;;;;19.90;11.80;;;;;;;-3.12;76.22;100214.70;106925;1257;72871;-39
2024/01/10 09:57:25;;;;;;;23.40;12.20;;;;;;;-3.02;76.31;100225.31;107279;1257;59535;-39
2024/01/10 09:59:54;;;;;;;18.60;10.90;;;;;;;-3.01;76.63;100224.03;107294;1257;60237;-39
2024/01/10 10:02:23;;;;;;;20.80;11.90;;;;;;;-3.02;76.26;100224.09;107237;1257;70895;-39
2024/01/10 10:05:07;;;;;;;21.50;11.90;;;;;;;-3.04;76.35;100222.25;107326;1256;68301;-39
2024/01/10 10:07:49;;;;;;;19.30;11.20;;;;;;;-3.05;76.70;100228.20;107620;1256;70222;-39
2024/01/10 10:10:17;;;;;;;18.90;10.90;;;;;;;-2.97;76.06;100228.64;107689;1254;59714;-39
2024/01/10 10:12:50;;;;;;;20.30;10.90;;;;;;;-2.93;76.12;100222.48;107721;1254;60083;-39
2024/01/10 10:15:22;;;;;;;19.40;11.20;;;;;;;-2.98;76.23;100221.69;107695;1253;70804;-40
2024/01/10 10:17:50;;;;;;;18.00;11.30;;;;;;;-2.99;76.44;100222.68;107750;1254;68098;-39
2024/01/10 10:20:22;;;;;;;21.50;12.30;;;;;;;-2.99;76.34;100215.89;107639;1253;72807;-39
2024/01/10 10:23:00;;;;;;;22.90;12.30;;;;;;;-3.01;76.39;100217.52;106932;1254;1003175;-39
2024/01/10 10:25:34;;;;;;;24.10;12.70;;;;;;;-3.01;76.23;100221.39;106887;1252;1003066;-39
2024/01/10 10:28:03;;;;;;;20.50;12.00;;;;;;;-2.92;76.15;100214.16;107677;1252;71851;-39
2024/01/10 10:30:32;;;;;;;18.70;10.80;;;;;;;-2.87;76.14;100214.16;107701;1253;67783;-39
2024/01/10 10:33:01;;;;;;;17.60;10.60;;;;;;;-2.89;75.97;100215.30;107714;1256;72873;-39
2024/01/10 10:35:29;;;;;;;23.70;12.70;;;;;;;-2.94;76.05;100209.79;107693;1254;59423;-39
2024/01/10 10:38:08;;;;;;;22.90;12.20;;;;;;;-2.99;76.03;100210.37;107647;1254;60016;-39
2024/01/10 10:40:36;;;;;;;23.40;12.30;;;;;;;-3.01;76.31;100210.95;107647;1254;73137;-39
2024/01/10 10:43:04;;;;;;;18.30;11.30;;;;;;;-2.94;76.19;100209.42;107672;1253;66440;-39
2024/01/10 10:45:32;;;;;;;19.50;11.30;;;;;;;-2.86;76.08;100213.48;107644;1254;72800;-39
2024/01/10 10:48:01;;;;;;;20.10;11.70;;;;;;;-2.84;76.30;100209.09;106719;1253;1002681;-39
2024/01/10 10:50:33;;;;;;;19.80;10.80;;;;;;;-2.80;76.36;100205.48;107675;1257;59711;-39
2024/01/10 10:53:03;;;;;;;22.70;12.20;;;;;;;-2.78;76.14;100208.36;107695;1254;71853;-39
2024/01/10 10:55:31;;;;;;;21.60;12.10;;;;;;;-2.78;75.95;100199.65;106948;1256;1005118;-40
2024/01/10 10:57:58;;;;;;;22.50;12.30;;;;;;;-2.79;75.95;100203.46;106871;1253;1002910;-40
2024/01/10 11:00:36;;;;;;;20.30;11.70;;;;;;;-2.71;75.64;100201.95;107701;1253;59631;-40
2024/01/10 11:03:04;;;;;;;20.30;11.30;;;;;;;-2.67;75.60;100197.59;107691;1253;59740;-40
2024/01/10 11:05:32;;;;;;;17.30;11.30;;;;;;;-2.72;75.65;100197.05;107444;1251;72898;-39
2024/01/10 11:08:01;;;;;;;15.80;9.20;;;;;;;-2.75;75.79;100199.73;107651;1252;66743;-39
2024/01/10 11:10:33;;;;;;;21.70;10.80;;;;;;;-2.83;75.98;100186.92;107662;1254;73058;-39
2024/01/10 11:13:10;;;;;;;22.10;12.00;;;;;;;-2.78;75.74;100209.00;107680;1253;59634;-40